createdAt,value
2018-01-21T00:00:19.765Z,14.60
2018-01-21T00:02:48.842Z,16.17
2018-01-21T00:05:17.201Z,16.90
2018-01-21T00:07:45.568Z,16.23
2018-01-21T00:10:13.891Z,18.50
2018-01-21T00:12:42.197Z,18.87
2018-01-21T00:15:11.346Z,15.93
2018-01-21T00:17:39.706Z,17.80
2018-01-21T00:20:08.002Z,18.90
2018-01-21T00:22:41.149Z,21.40
2018-01-21T00:25:09.830Z,20.90
2018-01-21T00:27:38.209Z,19.97
2018-01-21T00:30:06.510Z,18.80
2018-01-21T00:32:34.803Z,20.23
2018-01-21T00:35:03.055Z,19.50
2018-01-21T00:37:31.440Z,19.20
2018-01-21T00:39:59.822Z,18.27
2018-01-21T00:42:28.071Z,18.40
2018-01-21T00:44:57.302Z,18.47
2018-01-21T00:47:25.820Z,20.33
2018-01-21T00:49:55.204Z,20.43
2018-01-21T00:52:23.472Z,20.83
2018-01-21T00:54:51.841Z,17.90
2018-01-21T00:57:21.454Z,18.07
2018-01-21T00:59:49.900Z,20.67
2018-01-21T01:02:18.149Z,19.70
2018-01-21T01:04:46.410Z,20.13
2018-01-21T01:07:15.504Z,20.90
2018-01-21T01:09:43.823Z,20.00
2018-01-21T01:12:12.061Z,19.77
2018-01-21T01:17:05.184Z,26.07
2018-01-21T01:19:34.214Z,25.43
2018-01-21T01:22:02.489Z,23.83
2018-01-21T01:24:30.764Z,21.70
2018-01-21T01:26:59.008Z,22.63
2018-01-21T01:29:28.017Z,24.33
2018-01-21T01:31:57.552Z,22.63
2018-01-21T01:34:25.815Z,23.37
2018-01-21T01:36:54.196Z,19.83
2018-01-21T01:39:22.513Z,21.30
2018-01-21T01:41:50.744Z,24.20
2018-01-21T01:44:18.992Z,21.43
2018-01-21T01:46:47.448Z,22.43
2018-01-21T01:49:15.701Z,22.97
2018-01-21T01:51:43.916Z,23.07
2018-01-21T01:54:12.943Z,22.47
2018-01-21T01:56:41.812Z,21.60
2018-01-21T01:59:10.107Z,25.67
2018-01-21T02:01:39.713Z,24.00
2018-01-21T02:04:07.980Z,24.90
2018-01-21T02:06:36.256Z,33.60
2018-01-21T02:09:04.509Z,26.23
2018-01-21T02:11:33.668Z,25.83
2018-01-21T02:14:01.886Z,24.80
2018-01-21T02:16:30.954Z,21.77
2018-01-21T02:18:59.193Z,21.43
2018-01-21T02:21:27.448Z,24.00
2018-01-21T02:23:56.613Z,22.87
2018-01-21T02:26:25.617Z,27.07
2018-01-21T02:28:54.713Z,27.37
2018-01-21T02:31:22.994Z,24.60
2018-01-21T02:33:53.238Z,26.60
2018-01-21T02:36:21.529Z,23.77
2018-01-21T02:38:49.785Z,25.93
2018-01-21T02:41:18.177Z,31.53
2018-01-21T02:43:46.417Z,26.13
2018-01-21T02:46:15.957Z,25.30
2018-01-21T02:48:44.201Z,24.13
2018-01-21T02:51:13.205Z,20.20
2018-01-21T02:53:41.501Z,26.47
2018-01-21T02:56:09.793Z,24.83
2018-01-21T02:58:38.089Z,24.77
2018-01-21T03:01:06.340Z,25.20
2018-01-21T03:03:34.618Z,23.17
2018-01-21T03:06:02.856Z,23.77
2018-01-21T03:08:31.926Z,25.17
2018-01-21T03:11:00.304Z,26.17
2018-01-21T03:13:28.517Z,30.80
2018-01-21T03:15:56.828Z,25.97
2018-01-21T03:18:25.195Z,23.80
2018-01-21T03:20:53.428Z,22.10
2018-01-21T03:23:21.890Z,23.17
2018-01-21T03:25:50.174Z,23.20
2018-01-21T03:28:18.416Z,23.93
2018-01-21T03:30:46.697Z,21.90
2018-01-21T03:33:14.941Z,22.97
2018-01-21T03:35:43.269Z,22.37
2018-01-21T03:38:11.542Z,21.63
2018-01-21T03:40:39.876Z,21.17
2018-01-21T03:43:08.112Z,22.50
2018-01-21T03:45:37.481Z,22.87
2018-01-21T03:48:05.720Z,24.53
2018-01-21T03:50:33.953Z,20.60
2018-01-21T03:53:02.276Z,26.87
2018-01-21T03:55:30.584Z,23.83
2018-01-21T03:57:58.845Z,22.63
2018-01-21T04:00:27.208Z,22.67
2018-01-21T04:02:55.456Z,23.73
2018-01-21T04:05:23.848Z,23.70
2018-01-21T04:07:52.158Z,22.63
2018-01-21T04:10:20.455Z,23.93
2018-01-21T04:12:48.913Z,21.70
2018-01-21T04:15:17.264Z,21.77
2018-01-21T04:17:45.515Z,20.73
2018-01-21T04:20:13.798Z,20.47
2018-01-21T04:22:42.280Z,23.07
2018-01-21T04:25:10.525Z,22.70
2018-01-21T04:27:38.789Z,23.37
2018-01-21T04:30:07.801Z,22.83
2018-01-21T04:32:36.046Z,22.37
2018-01-21T04:35:04.484Z,27.93
2018-01-21T04:37:33.617Z,26.03
2018-01-21T04:40:01.888Z,24.10
2018-01-21T04:42:30.132Z,23.20
2018-01-21T04:44:59.180Z,23.27
2018-01-21T04:47:27.460Z,23.50
2018-01-21T04:49:55.707Z,22.23
2018-01-21T04:52:24.038Z,23.80
2018-01-21T04:54:52.284Z,23.67
2018-01-21T04:57:20.665Z,23.80
2018-01-21T04:59:50.303Z,23.20
2018-01-21T05:02:18.552Z,22.43
2018-01-21T05:04:46.915Z,20.67
2018-01-21T05:07:15.170Z,21.40
2018-01-21T05:09:43.400Z,24.23
2018-01-21T05:12:11.644Z,21.80
2018-01-21T05:14:39.930Z,22.87
2018-01-21T05:17:08.208Z,20.53
2018-01-21T05:19:36.454Z,20.67
2018-01-21T05:22:04.747Z,23.47
2018-01-21T05:24:32.998Z,20.37
2018-01-21T05:27:02.032Z,22.53
2018-01-21T05:29:30.401Z,18.53
2018-01-21T05:31:58.716Z,19.90
2018-01-21T05:34:26.986Z,18.63
2018-01-21T05:36:55.250Z,18.37
2018-01-21T05:39:23.535Z,18.30
2018-01-21T05:41:51.753Z,17.73
2018-01-21T05:44:20.164Z,16.53
2018-01-21T05:46:48.456Z,15.97
2018-01-21T05:49:16.725Z,16.10
2018-01-21T05:51:45.045Z,15.20
2018-01-21T05:54:13.273Z,14.27
2018-01-21T05:56:41.644Z,14.57
2018-01-21T05:59:09.920Z,14.70
2018-01-21T06:01:38.181Z,14.57
2018-01-21T06:04:06.420Z,13.83
2018-01-21T06:06:34.728Z,14.03
2018-01-21T06:09:02.971Z,14.60
2018-01-21T06:11:31.265Z,15.33
2018-01-21T06:14:00.295Z,16.90
2018-01-21T06:16:28.875Z,15.00
2018-01-21T06:18:57.168Z,15.70
2018-01-21T06:21:25.517Z,17.17
2018-01-21T06:23:53.834Z,16.13
2018-01-21T06:26:22.120Z,14.57
2018-01-21T06:28:50.446Z,14.03
2018-01-21T06:31:18.700Z,15.37
2018-01-21T06:33:47.745Z,14.97
2018-01-21T06:36:16.018Z,14.57
2018-01-21T06:38:44.356Z,13.13
2018-01-21T06:41:13.792Z,13.00
2018-01-21T06:43:42.057Z,13.47
2018-01-21T06:46:10.298Z,14.37
2018-01-21T06:48:38.529Z,12.63
2018-01-21T06:51:06.852Z,14.33
2018-01-21T06:53:35.121Z,13.43
2018-01-21T06:56:03.439Z,13.13
2018-01-21T06:58:32.220Z,12.83
2018-01-21T07:01:00.470Z,12.97
2018-01-21T07:03:28.712Z,13.90
2018-01-21T07:05:56.989Z,12.30
2018-01-21T07:08:25.269Z,11.93
2018-01-21T07:10:53.500Z,12.93
2018-01-21T07:13:21.804Z,13.13
2018-01-21T07:15:50.158Z,15.83
2018-01-21T07:18:19.140Z,12.53
2018-01-21T07:20:47.424Z,13.93
2018-01-21T07:23:15.684Z,12.53
2018-01-21T07:25:44.789Z,12.47
2018-01-21T07:28:13.142Z,12.97
2018-01-21T07:33:22.117Z,12.27
2018-01-21T07:35:50.370Z,12.67
2018-01-21T07:38:18.654Z,13.17
2018-01-21T07:40:47.841Z,14.40
2018-01-21T07:43:17.047Z,12.80
2018-01-21T07:45:45.402Z,12.33
2018-01-21T07:48:13.860Z,12.10
2018-01-21T07:50:42.116Z,13.33
2018-01-21T07:53:10.373Z,13.73
2018-01-21T07:55:38.723Z,11.80
2018-01-21T07:58:06.995Z,12.63
2018-01-21T08:00:35.284Z,12.97
2018-01-21T08:03:04.393Z,13.27
2018-01-21T08:05:33.413Z,14.20
2018-01-21T08:08:01.660Z,13.40
2018-01-21T08:10:30.756Z,14.87
2018-01-21T08:12:59.048Z,13.90
2018-01-21T08:15:27.332Z,13.30
2018-01-21T08:17:55.654Z,13.03
2018-01-21T08:20:23.921Z,14.50
2018-01-21T08:22:52.204Z,14.00
2018-01-21T08:25:20.457Z,14.43
2018-01-21T08:27:48.780Z,13.93
2018-01-21T08:30:18.021Z,14.83
2018-01-21T08:32:47.121Z,14.33
2018-01-21T08:35:21.092Z,13.37
2018-01-21T08:37:55.716Z,13.73
2018-01-21T08:40:29.667Z,13.97
2018-01-21T08:42:58.781Z,12.67
2018-01-21T08:45:28.403Z,11.47
2018-01-21T08:47:56.722Z,11.87
2018-01-21T08:50:25.992Z,12.60
2018-01-21T08:52:54.631Z,12.53
2018-01-21T08:55:23.029Z,11.17
2018-01-21T08:57:51.537Z,10.90
2018-01-21T09:00:19.856Z,11.23
2018-01-21T09:02:48.133Z,10.60
2018-01-21T09:05:16.484Z,11.20
2018-01-21T09:07:44.942Z,10.47
2018-01-21T09:10:13.382Z,10.80
2018-01-21T09:12:41.903Z,10.80
2018-01-21T09:15:10.254Z,10.20
2018-01-21T09:17:38.676Z,10.23
2018-01-21T09:20:07.939Z,9.53
2018-01-21T09:22:36.464Z,9.90
2018-01-21T09:25:05.884Z,9.63
2018-01-21T09:27:34.280Z,10.43
2018-01-21T09:30:02.679Z,10.73
2018-01-21T09:32:31.156Z,10.70
2018-01-21T09:34:59.640Z,9.87
2018-01-21T09:37:28.366Z,10.67
2018-01-21T09:39:57.052Z,10.70
2018-01-21T09:42:27.820Z,10.10
2018-01-21T09:44:56.100Z,11.00
2018-01-21T09:47:24.664Z,10.77
2018-01-21T09:49:53.491Z,11.20
2018-01-21T09:52:22.112Z,11.27
2018-01-21T09:54:50.422Z,10.50
2018-01-21T09:57:18.926Z,10.40
2018-01-21T09:59:47.224Z,11.27
2018-01-21T10:02:16.238Z,11.00
2018-01-21T10:04:44.534Z,10.93
2018-01-21T10:07:12.833Z,10.70
2018-01-21T10:09:41.154Z,10.50
2018-01-21T10:12:09.369Z,9.73
2018-01-21T10:14:37.636Z,10.90
2018-01-21T10:17:05.869Z,9.90
2018-01-21T10:19:34.916Z,10.20
2018-01-21T10:22:03.215Z,10.53
2018-01-21T10:24:31.594Z,10.50
2018-01-21T10:26:59.948Z,11.07
2018-01-21T10:29:28.206Z,10.90
2018-01-21T10:31:56.510Z,11.10
2018-01-21T10:34:24.869Z,11.20
2018-01-21T10:36:53.109Z,11.07
2018-01-21T10:39:21.358Z,10.53
2018-01-21T10:41:49.648Z,10.57
2018-01-21T10:44:17.869Z,10.20
2018-01-21T10:46:46.125Z,10.07
2018-01-21T10:49:15.631Z,10.03
2018-01-21T10:51:44.410Z,9.60
2018-01-21T10:54:13.409Z,9.80
2018-01-21T10:56:42.453Z,9.23
2018-01-21T10:59:11.289Z,8.40
2018-01-21T11:01:39.628Z,6.90
2018-01-21T11:04:07.945Z,6.70
2018-01-21T11:06:36.486Z,7.90
2018-01-21T11:09:04.813Z,7.20
2018-01-21T11:11:33.929Z,8.40
2018-01-21T11:14:02.241Z,7.67
2018-01-21T11:16:31.384Z,7.80
2018-01-21T11:19:00.652Z,8.00
2018-01-21T11:21:28.862Z,8.57
2018-01-21T11:23:57.111Z,8.63
2018-01-21T11:26:25.380Z,8.90
2018-01-21T11:28:53.611Z,9.07
2018-01-21T11:31:21.864Z,8.80
2018-01-21T11:33:51.752Z,9.00
2018-01-21T11:36:19.997Z,9.37
2018-01-21T11:38:48.237Z,9.37
2018-01-21T11:41:17.322Z,10.27
2018-01-21T11:43:45.598Z,9.70
2018-01-21T11:46:14.612Z,9.50
2018-01-21T11:48:52.645Z,9.93
2018-01-21T11:51:20.868Z,9.27
2018-01-21T11:53:49.884Z,9.30
2018-01-21T11:56:18.136Z,9.30
2018-01-21T11:58:47.157Z,9.37
2018-01-21T12:01:15.524Z,8.57
2018-01-21T12:03:44.714Z,8.83
2018-01-21T12:06:13.720Z,8.33
2018-01-21T12:08:42.727Z,7.80
2018-01-21T12:11:11.038Z,8.30
2018-01-21T12:13:39.284Z,7.70
2018-01-21T12:16:07.672Z,7.90
2018-01-21T12:18:35.960Z,8.13
2018-01-21T12:21:04.188Z,7.93
2018-01-21T12:23:33.209Z,7.83
2018-01-21T12:26:01.589Z,7.70
2018-01-21T12:28:30.606Z,7.97
2018-01-21T12:30:58.841Z,8.33
2018-01-21T12:33:27.162Z,7.87
2018-01-21T12:35:55.465Z,8.60
2018-01-21T12:38:23.776Z,8.67
2018-01-21T12:40:52.806Z,8.37
2018-01-21T12:43:21.116Z,7.73
2018-01-21T12:45:49.348Z,7.33
2018-01-21T12:48:17.649Z,6.73
2018-01-21T12:50:46.885Z,6.60
2018-01-21T12:53:17.000Z,6.97
2018-01-21T12:55:46.056Z,7.20
2018-01-21T12:58:14.353Z,7.10
2018-01-21T13:00:42.635Z,6.93
2018-01-21T13:03:10.913Z,6.93
2018-01-21T13:05:39.122Z,7.23
2018-01-21T13:08:08.108Z,6.80
2018-01-21T13:10:37.453Z,7.17
2018-01-21T13:13:05.847Z,7.10
2018-01-21T13:15:34.953Z,6.40
2018-01-21T13:18:03.408Z,6.30
2018-01-21T13:20:31.708Z,5.53
2018-01-21T13:22:59.944Z,5.30
2018-01-21T13:25:28.204Z,5.73
2018-01-21T13:27:56.476Z,6.37
2018-01-21T13:30:24.744Z,6.50
2018-01-21T13:32:53.048Z,6.63
2018-01-21T13:35:21.276Z,6.77
2018-01-21T13:37:50.289Z,7.80
2018-01-21T13:40:20.688Z,8.50
2018-01-21T13:42:48.919Z,12.07
2018-01-21T13:45:17.216Z,9.57
2018-01-21T13:47:45.472Z,7.80
2018-01-21T13:50:13.740Z,8.37
2018-01-21T13:52:42.005Z,8.57
2018-01-21T13:55:10.313Z,8.97
2018-01-21T13:57:38.596Z,8.60
2018-01-21T14:00:06.832Z,9.30
2018-01-21T14:02:35.190Z,9.10
2018-01-21T14:05:04.282Z,9.50
2018-01-21T14:07:32.517Z,9.40
2018-01-21T14:10:00.784Z,9.43
2018-01-21T14:12:29.082Z,9.50
2018-01-21T14:14:57.367Z,9.43
2018-01-21T14:17:25.641Z,10.10
2018-01-21T14:19:54.023Z,9.77
2018-01-21T14:22:22.253Z,10.37
2018-01-21T14:24:50.566Z,10.40
2018-01-21T14:27:18.804Z,10.43
2018-01-21T14:29:47.106Z,10.33
2018-01-21T14:32:15.360Z,10.27
2018-01-21T14:34:43.612Z,10.90
2018-01-21T14:37:12.677Z,10.87
2018-01-21T14:39:41.074Z,10.77
2018-01-21T14:42:09.326Z,11.17
2018-01-21T14:44:37.679Z,11.00
2018-01-21T14:47:05.955Z,12.03
2018-01-21T14:49:34.240Z,11.47
2018-01-21T14:52:02.501Z,13.33
2018-01-21T14:54:30.804Z,11.23
2018-01-21T14:56:59.054Z,11.20
2018-01-21T14:59:27.301Z,11.57
2018-01-21T15:01:55.588Z,11.50
2018-01-21T15:04:23.825Z,11.63
2018-01-21T15:06:52.061Z,11.57
2018-01-21T15:09:20.377Z,11.87
2018-01-21T15:11:48.614Z,11.90
2018-01-21T15:14:16.868Z,12.00
2018-01-21T15:16:45.145Z,11.90
2018-01-21T15:19:13.433Z,12.47
2018-01-21T15:21:42.549Z,12.30
2018-01-21T15:24:10.824Z,12.07
2018-01-21T15:26:39.113Z,12.00
2018-01-21T15:29:08.166Z,12.30
2018-01-21T15:31:36.473Z,13.77
2018-01-21T15:34:04.841Z,12.70
2018-01-21T15:36:33.122Z,13.67
2018-01-21T15:39:01.526Z,12.03
2018-01-21T15:41:29.762Z,12.53
2018-01-21T15:43:58.037Z,12.90
2018-01-21T15:46:26.328Z,12.97
2018-01-21T15:48:54.619Z,13.23
2018-01-21T15:51:22.868Z,14.37
2018-01-21T15:53:51.244Z,15.33
2018-01-21T15:56:19.520Z,14.50
2018-01-21T15:58:47.818Z,15.03
2018-01-21T16:01:16.173Z,16.03
2018-01-21T16:03:44.418Z,15.33
2018-01-21T16:06:13.429Z,14.63
2018-01-21T16:08:41.738Z,14.57
2018-01-21T16:11:09.992Z,15.50
2018-01-21T16:13:38.240Z,14.63
2018-01-21T16:16:07.349Z,16.70
2018-01-21T16:18:36.510Z,14.23
2018-01-21T16:21:04.752Z,14.00
2018-01-21T16:23:33.028Z,16.97
2018-01-21T16:26:01.272Z,16.53
2018-01-21T16:28:29.530Z,15.70
2018-01-21T16:30:57.803Z,16.13
2018-01-21T16:33:26.838Z,15.90
2018-01-21T16:35:55.112Z,15.03
2018-01-21T16:38:47.142Z,15.33
2018-01-21T16:41:15.629Z,14.97
2018-01-21T16:43:44.636Z,16.50
2018-01-21T16:46:12.960Z,15.40
2018-01-21T16:48:41.992Z,14.67
2018-01-21T16:51:10.264Z,16.23
2018-01-21T16:53:38.544Z,16.60
2018-01-21T16:56:06.820Z,16.83
2018-01-21T16:58:35.084Z,17.47
2018-01-21T17:01:03.464Z,18.40
2018-01-21T17:03:31.712Z,17.37
2018-01-21T17:05:59.960Z,17.77
2018-01-21T17:08:28.379Z,17.37
2018-01-21T17:10:57.396Z,18.60
2018-01-21T17:13:26.014Z,16.53
2018-01-21T17:15:55.221Z,18.73
2018-01-21T17:18:23.739Z,17.10
2018-01-21T17:20:51.954Z,16.57
2018-01-21T17:23:20.429Z,19.20
2018-01-21T17:25:48.767Z,18.97
2018-01-21T17:28:17.061Z,19.27
2018-01-21T17:30:46.860Z,17.03
2018-01-21T17:33:15.144Z,16.07
2018-01-21T17:35:43.421Z,15.50
2018-01-21T17:38:11.800Z,14.77
2018-01-21T17:40:40.084Z,15.50
2018-01-21T17:43:09.537Z,17.43
2018-01-21T17:45:40.694Z,17.07
2018-01-21T17:48:08.924Z,18.10
2018-01-21T17:50:37.252Z,18.20
2018-01-21T17:53:06.521Z,17.53
2018-01-21T17:55:34.853Z,16.90
2018-01-21T17:58:03.200Z,16.50
2018-01-21T18:00:31.504Z,18.63
2018-01-21T18:02:59.766Z,15.87
2018-01-21T18:05:28.454Z,18.03
2018-01-21T18:07:56.857Z,16.97
2018-01-21T18:10:25.897Z,15.80
2018-01-21T18:12:54.597Z,16.70
2018-01-21T18:15:22.909Z,16.90
2018-01-21T18:17:51.262Z,16.87
2018-01-21T18:20:19.524Z,15.90
2018-01-21T18:22:47.988Z,18.00
2018-01-21T18:25:16.251Z,19.57
2018-01-21T18:27:44.505Z,19.83
2018-01-21T18:30:13.773Z,18.93
2018-01-21T18:32:42.184Z,19.30
2018-01-21T18:35:11.589Z,18.50
2018-01-21T18:37:39.988Z,19.07
2018-01-21T18:42:41.341Z,19.30
2018-01-21T18:45:10.383Z,17.73
2018-01-21T18:47:38.772Z,19.93
2018-01-21T18:50:09.905Z,18.97
2018-01-21T18:52:38.276Z,21.93
2018-01-21T18:55:07.276Z,18.97
2018-01-21T18:57:35.647Z,22.30
2018-01-21T19:00:04.572Z,22.13
2018-01-21T19:02:32.928Z,21.07
2018-01-21T19:05:01.790Z,20.20
2018-01-21T19:07:30.051Z,19.77
2018-01-21T19:09:59.108Z,21.90
2018-01-21T19:12:27.464Z,21.30
2018-01-21T19:14:55.844Z,21.37
2018-01-21T19:17:24.326Z,19.30
2018-01-21T19:19:52.755Z,20.30
2018-01-21T19:22:21.320Z,20.27
2018-01-21T19:24:50.443Z,18.57
2018-01-21T19:27:18.816Z,20.00
2018-01-21T19:29:47.066Z,19.33
2018-01-21T19:32:15.425Z,18.73
2018-01-21T19:34:43.782Z,18.70
2018-01-21T19:37:12.193Z,23.80
2018-01-21T19:39:47.022Z,20.87
2018-01-21T19:45:13.072Z,18.70
2018-01-21T19:47:41.334Z,18.93
2018-01-21T19:50:09.857Z,19.33
2018-01-21T19:52:39.017Z,20.93
2018-01-21T19:55:10.254Z,19.23
2018-01-21T19:57:43.669Z,19.57
2018-01-21T20:00:12.279Z,20.37
2018-01-21T20:02:40.551Z,20.10
2018-01-21T20:05:08.935Z,18.77
2018-01-21T20:07:37.931Z,20.43
2018-01-21T20:10:06.829Z,18.80
2018-01-21T20:12:35.210Z,20.67
2018-01-21T20:15:04.167Z,19.73
2018-01-21T20:17:32.870Z,21.37
2018-01-21T20:20:01.878Z,20.07
2018-01-21T20:22:30.459Z,21.63
2018-01-21T20:24:58.875Z,17.93
2018-01-21T20:27:27.769Z,20.33
2018-01-21T20:29:56.872Z,18.67
2018-01-21T20:32:25.352Z,19.40
2018-01-21T20:34:55.592Z,18.77
2018-01-21T20:37:25.469Z,20.63
2018-01-21T20:39:53.744Z,19.57
2018-01-21T20:42:22.865Z,19.20
2018-01-21T20:44:54.139Z,24.47
2018-01-21T20:47:23.937Z,19.97
2018-01-21T20:49:53.950Z,21.43
2018-01-21T20:52:27.986Z,23.83
2018-01-21T20:54:56.348Z,19.60
2018-01-21T20:57:24.866Z,21.17
2018-01-21T20:59:53.368Z,20.97
2018-01-21T21:02:22.827Z,21.83
2018-01-21T21:04:52.086Z,25.90
2018-01-21T21:07:21.829Z,21.97
2018-01-21T21:09:50.581Z,21.73
2018-01-21T21:12:19.725Z,22.43
2018-01-21T21:14:48.170Z,23.87
2018-01-21T21:17:16.652Z,20.00
2018-01-21T21:19:45.828Z,23.47
2018-01-21T21:22:14.207Z,25.80
2018-01-21T21:24:42.469Z,22.13
2018-01-21T21:27:11.205Z,20.10
2018-01-21T21:29:40.061Z,22.70
2018-01-21T21:32:09.455Z,24.73
2018-01-21T21:34:37.951Z,21.00
2018-01-21T21:37:06.434Z,23.07
2018-01-21T21:39:34.746Z,24.67
2018-01-21T21:42:03.243Z,22.80
2018-01-21T21:44:31.681Z,20.60
2018-01-21T21:47:02.338Z,24.27
2018-01-21T21:49:31.010Z,23.87
2018-01-21T21:52:00.173Z,25.70
2018-01-21T21:54:28.521Z,21.30
2018-01-21T21:56:56.849Z,20.97
2018-01-21T21:59:25.209Z,20.53
2018-01-21T22:01:53.953Z,21.33
2018-01-21T22:04:22.535Z,23.90
2018-01-21T22:06:51.090Z,21.57
2018-01-21T22:09:20.947Z,22.47
2018-01-21T22:11:49.447Z,28.00
2018-01-21T22:14:18.143Z,24.37
2018-01-21T22:16:46.476Z,22.93
2018-01-21T22:19:14.975Z,22.70
2018-01-21T22:21:43.592Z,21.80
2018-01-21T22:24:11.932Z,24.87
2018-01-21T22:26:40.646Z,21.67
2018-01-21T22:29:10.198Z,21.27
2018-01-21T22:31:38.737Z,23.97
2018-01-21T22:34:07.454Z,22.80
2018-01-21T22:36:36.560Z,20.10
2018-01-21T22:39:04.833Z,20.03
2018-01-21T22:41:33.100Z,20.07
2018-01-21T22:44:02.461Z,23.00
2018-01-21T22:46:30.778Z,20.07
2018-01-21T22:48:59.323Z,22.57
2018-01-21T22:51:27.778Z,23.80
2018-01-21T22:53:56.043Z,22.67
2018-01-21T22:56:24.470Z,20.83
2018-01-21T22:58:52.946Z,20.23
2018-01-21T23:01:21.327Z,21.37
2018-01-21T23:03:49.808Z,24.37
2018-01-21T23:06:19.367Z,20.37
2018-01-21T23:08:47.648Z,24.10
2018-01-21T23:11:17.137Z,24.90
2018-01-21T23:13:45.761Z,26.93
2018-01-21T23:16:14.189Z,26.60
2018-01-21T23:18:43.392Z,25.03
2018-01-21T23:21:11.934Z,26.70
2018-01-21T23:23:40.328Z,26.67
2018-01-21T23:26:09.581Z,25.77
2018-01-21T23:28:38.150Z,25.63
2018-01-21T23:31:07.384Z,26.80
2018-01-21T23:33:35.758Z,28.30
2018-01-21T23:36:04.109Z,25.17
2018-01-21T23:38:32.597Z,27.60
2018-01-21T23:41:00.973Z,29.47
2018-01-21T23:43:29.390Z,26.83
2018-01-21T23:45:57.995Z,28.63
2018-01-21T23:48:26.331Z,24.67
2018-01-21T23:50:55.917Z,27.07
2018-01-21T23:53:24.586Z,28.87
2018-01-21T23:55:52.873Z,24.50
2018-01-21T23:58:21.964Z,24.67
